sensor_id;sensor_type;location;lat;lon;timestamp;pressure;altitude;pressure_sealevel;temperature;humidity
27358;BME280;14831;50.474;7.616;2023-05-08T00:01:24;98510;;;12.4;98.1
27358;BME280;14831;50.474;7.616;2023-05-08T00:06:24;98520;;;12.3;97.7
27358;BME280;14831;50.474;7.616;2023-05-08T00:11:24;98520;;;12.2;96.8
27358;BME280;14831;50.474;7.616;2023-05-08T00:16:24;98520;;;12.1;96.9
27358;BME280;14831;50.474;7.616;2023-05-08T00:21:24;98510;;;12.0;96.2
27358;BME280;14831;50.474;7.616;2023-05-08T00:26:24;98520;;;11.9;95.9
27358;BME280;14831;50.474;7.616;2023-05-08T00:31:24;98520;;;11.8;95.9
27358;BME280;14831;50.474;7.616;2023-05-08T00:36:24;98520;;;11.8;96.0
27358;BME280;14831;50.474;7.616;2023-05-08T00:41:24;98520;;;11.8;95.8
27358;BME280;14831;50.474;7.616;2023-05-08T00:46:24;98520;;;11.7;95.7
27358;BME280;14831;50.474;7.616;2023-05-08T00:51:24;98530;;;11.7;96.0
27358;BME280;14831;50.474;7.616;2023-05-08T00:56:24;98530;;;11.6;96.2
27358;BME280;14831;50.474;7.616;2023-05-08T01:01:24;98540;;;11.5;96.0
27358;BME280;14831;50.474;7.616;2023-05-08T01:06:24;98530;;;11.5;96.0
27358;BME280;14831;50.474;7.616;2023-05-08T01:11:26;98540;;;11.5;96.2
27358;BME280;14831;50.474;7.616;2023-05-08T01:16:26;98550;;;11.5;96.3
27358;BME280;14831;50.474;7.616;2023-05-08T01:21:26;98540;;;11.4;96.4
27358;BME280;14831;50.474;7.616;2023-05-08T01:26:36;98540;;;11.4;96.6
27358;BME280;14831;50.474;7.616;2023-05-08T01:31:24;98530;;;11.3;96.8
27358;BME280;14831;50.474;7.616;2023-05-08T01:36:27;98530;;;11.3;97.0
27358;BME280;14831;50.474;7.616;2023-05-08T01:41:25;98530;;;11.3;96.9
27358;BME280;14831;50.474;7.616;2023-05-08T01:46:25;98540;;;11.2;96.6
27358;BME280;14831;50.474;7.616;2023-05-08T01:51:24;98540;;;11.2;96.5
27358;BME280;14831;50.474;7.616;2023-05-08T01:56:24;98550;;;11.1;96.4
27358;BME280;14831;50.474;7.616;2023-05-08T02:01:24;98550;;;11.1;96.5
27358;BME280;14831;50.474;7.616;2023-05-08T02:06:24;98540;;;11.1;96.1
27358;BME280;14831;50.474;7.616;2023-05-08T02:11:24;98540;;;11.1;96.0
27358;BME280;14831;50.474;7.616;2023-05-08T02:16:24;98550;;;11.0;96.1
27358;BME280;14831;50.474;7.616;2023-05-08T02:21:24;98550;;;11.0;96.1
27358;BME280;14831;50.474;7.616;2023-05-08T02:26:24;98550;;;11.0;96.1
27358;BME280;14831;50.474;7.616;2023-05-08T02:31:24;98550;;;10.9;96.1
27358;BME280;14831;50.474;7.616;2023-05-08T02:36:24;98560;;;10.9;96.3
27358;BME280;14831;50.474;7.616;2023-05-08T02:41:25;98570;;;10.9;96.3
27358;BME280;14831;50.474;7.616;2023-05-08T02:46:24;98570;;;10.9;96.2
27358;BME280;14831;50.474;7.616;2023-05-08T02:51:24;98570;;;10.9;95.9
27358;BME280;14831;50.474;7.616;2023-05-08T02:56:28;98560;;;10.9;96.3
27358;BME280;14831;50.474;7.616;2023-05-08T03:01:25;98570;;;10.9;96.2
27358;BME280;14831;50.474;7.616;2023-05-08T03:06:24;98570;;;10.8;96.1
27358;BME280;14831;50.474;7.616;2023-05-08T03:11:25;98570;;;10.8;95.8
27358;BME280;14831;50.474;7.616;2023-05-08T03:16:24;98570;;;10.8;95.8
27358;BME280;14831;50.474;7.616;2023-05-08T03:21:25;98570;;;10.8;95.9
27358;BME280;14831;50.474;7.616;2023-05-08T03:26:24;98580;;;10.8;95.6
27358;BME280;14831;50.474;7.616;2023-05-08T03:31:24;98580;;;10.7;95.4
27358;BME280;14831;50.474;7.616;2023-05-08T03:36:24;98580;;;10.8;95.7
27358;BME280;14831;50.474;7.616;2023-05-08T03:41:24;98570;;;10.8;96.0
27358;BME280;14831;50.474;7.616;2023-05-08T03:46:24;98580;;;10.7;96.3
27358;BME280;14831;50.474;7.616;2023-05-08T03:51:25;98570;;;10.7;96.1
27358;BME280;14831;50.474;7.616;2023-05-08T03:56:24;98580;;;10.7;95.6
27358;BME280;14831;50.474;7.616;2023-05-08T04:01:25;98570;;;10.7;95.8
27358;BME280;14831;50.474;7.616;2023-05-08T04:06:27;98590;;;10.6;95.8
27358;BME280;14831;50.474;7.616;2023-05-08T04:11:25;98590;;;10.6;95.8
27358;BME280;14831;50.474;7.616;2023-05-08T04:16:25;98590;;;10.6;95.2
27358;BME280;14831;50.474;7.616;2023-05-08T04:21:24;98600;;;10.6;94.9
27358;BME280;14831;50.474;7.616;2023-05-08T04:26:24;98580;;;10.6;95.0
27358;BME280;14831;50.474;7.616;2023-05-08T04:31:24;98590;;;10.5;95.1
27358;BME280;14831;50.474;7.616;2023-05-08T04:36:24;98590;;;10.6;94.3
27358;BME280;14831;50.474;7.616;2023-05-08T04:41:24;98600;;;10.6;93.9
27358;BME280;14831;50.474;7.616;2023-05-08T04:46:24;98590;;;10.6;94.5
27358;BME280;14831;50.474;7.616;2023-05-08T04:51:24;98600;;;10.6;94.8
27358;BME280;14831;50.474;7.616;2023-05-08T04:56:24;98600;;;10.6;95.1
27358;BME280;14831;50.474;7.616;2023-05-08T05:01:24;98610;;;10.6;95.1
27358;BME280;14831;50.474;7.616;2023-05-08T05:06:24;98610;;;10.6;95.1
27358;BME280;14831;50.474;7.616;2023-05-08T05:11:24;98620;;;10.6;95.2
27358;BME280;14831;50.474;7.616;2023-05-08T05:16:24;98620;;;10.6;95.4
27358;BME280;14831;50.474;7.616;2023-05-08T05:21:24;98630;;;10.6;95.8
27358;BME280;14831;50.474;7.616;2023-05-08T05:26:24;98630;;;10.6;95.8
27358;BME280;14831;50.474;7.616;2023-05-08T05:31:24;98620;;;10.6;96.0
27358;BME280;14831;50.474;7.616;2023-05-08T05:36:24;98620;;;10.6;96.1
27358;BME280;14831;50.474;7.616;2023-05-08T05:41:24;98620;;;10.7;96.5
27358;BME280;14831;50.474;7.616;2023-05-08T05:46:24;98640;;;10.7;96.6
27358;BME280;14831;50.474;7.616;2023-05-08T05:51:24;98630;;;10.7;96.7
27358;BME280;14831;50.474;7.616;2023-05-08T05:56:24;98630;;;10.7;96.3
27358;BME280;14831;50.474;7.616;2023-05-08T06:01:24;98630;;;10.8;96.5
27358;BME280;14831;50.474;7.616;2023-05-08T06:06:24;98630;;;10.7;96.4
27358;BME280;14831;50.474;7.616;2023-05-08T06:11:24;98640;;;10.8;96.5
27358;BME280;14831;50.474;7.616;2023-05-08T06:16:24;98640;;;10.9;96.4
27358;BME280;14831;50.474;7.616;2023-05-08T06:21:24;98640;;;10.9;96.4
27358;BME280;14831;50.474;7.616;2023-05-08T06:26:24;98640;;;11.0;97.0
27358;BME280;14831;50.474;7.616;2023-05-08T06:31:24;98640;;;11.1;97.0
27358;BME280;14831;50.474;7.616;2023-05-08T06:36:24;98650;;;11.2;96.5
27358;BME280;14831;50.474;7.616;2023-05-08T06:41:24;98650;;;11.2;96.2
27358;BME280;14831;50.474;7.616;2023-05-08T06:46:24;98640;;;11.2;95.2
27358;BME280;14831;50.474;7.616;2023-05-08T06:51:24;98650;;;11.2;95.0
27358;BME280;14831;50.474;7.616;2023-05-08T06:56:24;98650;;;11.2;94.3
27358;BME280;14831;50.474;7.616;2023-05-08T07:01:24;98650;;;11.3;94.9
27358;BME280;14831;50.474;7.616;2023-05-08T07:06:24;98660;;;11.3;94.3
27358;BME280;14831;50.474;7.616;2023-05-08T07:11:25;98660;;;11.3;93.4
27358;BME280;14831;50.474;7.616;2023-05-08T07:16:24;98660;;;11.4;93.6
27358;BME280;14831;50.474;7.616;2023-05-08T07:21:24;98660;;;11.6;94.1
27358;BME280;14831;50.474;7.616;2023-05-08T07:26:24;98670;;;11.6;94.4
27358;BME280;14831;50.474;7.616;2023-05-08T07:31:24;98660;;;11.5;94.3
27358;BME280;14831;50.474;7.616;2023-05-08T07:36:24;98670;;;11.6;94.9
27358;BME280;14831;50.474;7.616;2023-05-08T07:41:24;98670;;;11.6;94.9
27358;BME280;14831;50.474;7.616;2023-05-08T07:46:24;98680;;;11.5;94.4
27358;BME280;14831;50.474;7.616;2023-05-08T07:51:24;98670;;;11.4;94.0
27358;BME280;14831;50.474;7.616;2023-05-08T07:56:24;98680;;;11.5;94.2
27358;BME280;14831;50.474;7.616;2023-05-08T08:01:24;98690;;;11.6;94.2
27358;BME280;14831;50.474;7.616;2023-05-08T08:06:24;98680;;;11.5;94.2
27358;BME280;14831;50.474;7.616;2023-05-08T08:11:24;98680;;;11.5;94.3
27358;BME280;14831;50.474;7.616;2023-05-08T08:16:24;98700;;;11.5;94.4
27358;BME280;14831;50.474;7.616;2023-05-08T08:21:24;98680;;;11.5;94.7
27358;BME280;14831;50.474;7.616;2023-05-08T08:26:24;98690;;;11.4;94.6
27358;BME280;14831;50.474;7.616;2023-05-08T08:31:24;98680;;;11.5;95.1
27358;BME280;14831;50.474;7.616;2023-05-08T08:36:24;98680;;;11.5;95.0
27358;BME280;14831;50.474;7.616;2023-05-08T08:41:24;98680;;;11.5;94.9
27358;BME280;14831;50.474;7.616;2023-05-08T08:46:26;98680;;;11.4;94.9
27358;BME280;14831;50.474;7.616;2023-05-08T08:51:25;98680;;;11.5;94.9
27358;BME280;14831;50.474;7.616;2023-05-08T08:56:24;98680;;;11.5;95.0
27358;BME280;14831;50.474;7.616;2023-05-08T09:01:24;98690;;;11.7;94.5
27358;BME280;14831;50.474;7.616;2023-05-08T09:06:24;98680;;;11.8;94.1
27358;BME280;14831;50.474;7.616;2023-05-08T09:11:24;98680;;;12.1;93.4
27358;BME280;14831;50.474;7.616;2023-05-08T09:16:24;98700;;;12.1;91.9
27358;BME280;14831;50.474;7.616;2023-05-08T09:21:24;98690;;;12.4;91.6
27358;BME280;14831;50.474;7.616;2023-05-08T09:26:25;98700;;;12.4;90.4
27358;BME280;14831;50.474;7.616;2023-05-08T09:31:27;98700;;;12.4;90.8
27358;BME280;14831;50.474;7.616;2023-05-08T09:36:24;98700;;;13.0;91.3
27358;BME280;14831;50.474;7.616;2023-05-08T09:41:24;98700;;;13.1;88.9
27358;BME280;14831;50.474;7.616;2023-05-08T09:46:25;98710;;;13.5;87.4
27358;BME280;14831;50.474;7.616;2023-05-08T09:51:25;98710;;;13.4;85.6
27358;BME280;14831;50.474;7.616;2023-05-08T09:56:28;98720;;;13.5;87.2
27358;BME280;14831;50.474;7.616;2023-05-08T10:01:28;98720;;;13.5;89.7
27358;BME280;14831;50.474;7.616;2023-05-08T10:06:24;98720;;;13.2;90.7
27358;BME280;14831;50.474;7.616;2023-05-08T10:11:24;98720;;;13.2;90.5
27358;BME280;14831;50.474;7.616;2023-05-08T10:16:24;98720;;;13.2;90.7
27358;BME280;14831;50.474;7.616;2023-05-08T10:21:24;98720;;;13.2;90.2
27358;BME280;14831;50.474;7.616;2023-05-08T10:26:26;98720;;;13.1;91.2
27358;BME280;14831;50.474;7.616;2023-05-08T10:31:24;98720;;;13.1;90.8
27358;BME280;14831;50.474;7.616;2023-05-08T10:36:24;98710;;;13.0;91.1
27358;BME280;14831;50.474;7.616;2023-05-08T10:41:24;98720;;;13.1;91.4
27358;BME280;14831;50.474;7.616;2023-05-08T10:46:27;98720;;;13.2;91.6
27358;BME280;14831;50.474;7.616;2023-05-08T10:51:26;98710;;;13.3;90.0
27358;BME280;14831;50.474;7.616;2023-05-08T10:56:24;98710;;;13.2;89.5
27358;BME280;14831;50.474;7.616;2023-05-08T11:01:24;98710;;;13.4;89.4
27358;BME280;14831;50.474;7.616;2023-05-08T11:06:55;98720;;;13.4;89.9
27358;BME280;14831;50.474;7.616;2023-05-08T11:11:27;98720;;;13.7;89.6
27358;BME280;14831;50.474;7.616;2023-05-08T11:17:29;98720;;;13.8;88.8
27358;BME280;14831;50.474;7.616;2023-05-08T11:21:24;98720;;;13.8;89.4
27358;BME280;14831;50.474;7.616;2023-05-08T11:26:37;98710;;;14.1;88.0
27358;BME280;14831;50.474;7.616;2023-05-08T11:31:24;98710;;;14.0;87.4
27358;BME280;14831;50.474;7.616;2023-05-08T11:36:24;98690;;;14.1;86.6
27358;BME280;14831;50.474;7.616;2023-05-08T11:41:24;98710;;;14.0;85.7
27358;BME280;14831;50.474;7.616;2023-05-08T11:46:29;98700;;;14.2;86.7
27358;BME280;14831;50.474;7.616;2023-05-08T11:51:24;98700;;;14.3;86.5
27358;BME280;14831;50.474;7.616;2023-05-08T11:56:24;98720;;;14.2;86.5
27358;BME280;14831;50.474;7.616;2023-05-08T12:01:24;98700;;;14.3;86.0
27358;BME280;14831;50.474;7.616;2023-05-08T12:06:24;98700;;;14.2;85.7
27358;BME280;14831;50.474;7.616;2023-05-08T12:11:24;98710;;;14.4;85.7
27358;BME280;14831;50.474;7.616;2023-05-08T12:16:24;98700;;;14.5;85.5
27358;BME280;14831;50.474;7.616;2023-05-08T12:21:24;98710;;;14.4;86.1
27358;BME280;14831;50.474;7.616;2023-05-08T12:26:24;98700;;;14.2;90.4
27358;BME280;14831;50.474;7.616;2023-05-08T12:31:24;98700;;;14.2;89.6
27358;BME280;14831;50.474;7.616;2023-05-08T12:36:24;98690;;;14.6;90.7
27358;BME280;14831;50.474;7.616;2023-05-08T12:41:24;98680;;;14.5;91.0
27358;BME280;14831;50.474;7.616;2023-05-08T12:46:24;98700;;;14.5;91.2
27358;BME280;14831;50.474;7.616;2023-05-08T12:51:28;98680;;;14.6;90.9
27358;BME280;14831;50.474;7.616;2023-05-08T12:56:24;98670;;;14.3;91.2
27358;BME280;14831;50.474;7.616;2023-05-08T13:01:24;98680;;;14.1;91.3
27358;BME280;14831;50.474;7.616;2023-05-08T13:06:24;98690;;;14.1;92.0
27358;BME280;14831;50.474;7.616;2023-05-08T13:11:27;98680;;;14.2;93.1
27358;BME280;14831;50.474;7.616;2023-05-08T13:16:24;98690;;;14.2;93.4
27358;BME280;14831;50.474;7.616;2023-05-08T13:21:24;98690;;;14.4;92.2
27358;BME280;14831;50.474;7.616;2023-05-08T13:26:24;98680;;;14.4;90.3
27358;BME280;14831;50.474;7.616;2023-05-08T13:31:24;98680;;;14.6;89.7
27358;BME280;14831;50.474;7.616;2023-05-08T13:36:24;98680;;;14.7;90.7
27358;BME280;14831;50.474;7.616;2023-05-08T13:41:24;98670;;;15.1;89.3
27358;BME280;14831;50.474;7.616;2023-05-08T13:46:24;98680;;;15.0;88.7
27358;BME280;14831;50.474;7.616;2023-05-08T13:51:24;98670;;;15.2;89.3
27358;BME280;14831;50.474;7.616;2023-05-08T13:56:24;98670;;;15.3;89.7
27358;BME280;14831;50.474;7.616;2023-05-08T14:01:24;98670;;;15.1;89.4
27358;BME280;14831;50.474;7.616;2023-05-08T14:06:24;98670;;;15.3;89.9
27358;BME280;14831;50.474;7.616;2023-05-08T14:11:24;98680;;;15.6;88.3
27358;BME280;14831;50.474;7.616;2023-05-08T14:16:24;98670;;;15.7;86.3
27358;BME280;14831;50.474;7.616;2023-05-08T14:21:24;98670;;;15.6;86.0
27358;BME280;14831;50.474;7.616;2023-05-08T14:26:24;98650;;;15.6;88.1
27358;BME280;14831;50.474;7.616;2023-05-08T14:31:24;98660;;;15.6;86.4
27358;BME280;14831;50.474;7.616;2023-05-08T14:36:24;98650;;;15.5;85.6
27358;BME280;14831;50.474;7.616;2023-05-08T14:41:26;98640;;;15.5;85.4
27358;BME280;14831;50.474;7.616;2023-05-08T14:46:25;98630;;;15.7;86.7
27358;BME280;14831;50.474;7.616;2023-05-08T14:51:24;98640;;;15.7;85.5
27358;BME280;14831;50.474;7.616;2023-05-08T14:56:24;98640;;;15.8;86.3
27358;BME280;14831;50.474;7.616;2023-05-08T15:01:24;98640;;;15.9;85.6
27358;BME280;14831;50.474;7.616;2023-05-08T15:06:24;98630;;;15.9;84.3
27358;BME280;14831;50.474;7.616;2023-05-08T15:11:24;98630;;;15.9;86.2
27358;BME280;14831;50.474;7.616;2023-05-08T15:16:24;98630;;;16.0;85.4
27358;BME280;14831;50.474;7.616;2023-05-08T15:21:24;98630;;;16.1;83.7
27358;BME280;14831;50.474;7.616;2023-05-08T15:26:24;98640;;;16.1;86.3
27358;BME280;14831;50.474;7.616;2023-05-08T15:31:24;98630;;;16.3;84.3
27358;BME280;14831;50.474;7.616;2023-05-08T15:36:24;98630;;;16.1;83.4
27358;BME280;14831;50.474;7.616;2023-05-08T15:41:24;98640;;;16.0;84.2
27358;BME280;14831;50.474;7.616;2023-05-08T15:46:24;98630;;;16.1;83.5
27358;BME280;14831;50.474;7.616;2023-05-08T15:51:24;98640;;;16.1;82.6
27358;BME280;14831;50.474;7.616;2023-05-08T15:56:24;98640;;;15.9;83.1
27358;BME280;14831;50.474;7.616;2023-05-08T16:01:24;98640;;;16.0;83.5
27358;BME280;14831;50.474;7.616;2023-05-08T16:06:24;98640;;;16.1;82.6
27358;BME280;14831;50.474;7.616;2023-05-08T16:11:24;98640;;;16.1;82.5
27358;BME280;14831;50.474;7.616;2023-05-08T16:16:24;98650;;;16.1;83.2
27358;BME280;14831;50.474;7.616;2023-05-08T16:21:24;98650;;;16.1;82.8
27358;BME280;14831;50.474;7.616;2023-05-08T16:26:24;98640;;;16.1;83.3
27358;BME280;14831;50.474;7.616;2023-05-08T16:31:24;98640;;;16.0;83.0
27358;BME280;14831;50.474;7.616;2023-05-08T16:36:24;98650;;;16.1;83.2
27358;BME280;14831;50.474;7.616;2023-05-08T16:41:24;98630;;;16.1;82.6
27358;BME280;14831;50.474;7.616;2023-05-08T16:46:24;98630;;;16.2;84.7
27358;BME280;14831;50.474;7.616;2023-05-08T16:51:24;98620;;;16.3;84.5
27358;BME280;14831;50.474;7.616;2023-05-08T16:56:24;98620;;;16.4;84.0
27358;BME280;14831;50.474;7.616;2023-05-08T17:01:24;98610;;;16.5;83.6
27358;BME280;14831;50.474;7.616;2023-05-08T17:06:24;98600;;;16.5;84.0
27358;BME280;14831;50.474;7.616;2023-05-08T17:11:24;98600;;;16.4;83.3
27358;BME280;14831;50.474;7.616;2023-05-08T17:16:24;98600;;;16.4;84.4
27358;BME280;14831;50.474;7.616;2023-05-08T17:21:24;98610;;;16.2;85.0
27358;BME280;14831;50.474;7.616;2023-05-08T17:26:24;98610;;;16.0;85.5
27358;BME280;14831;50.474;7.616;2023-05-08T17:31:24;98620;;;15.9;84.7
27358;BME280;14831;50.474;7.616;2023-05-08T17:36:24;98620;;;15.7;85.5
27358;BME280;14831;50.474;7.616;2023-05-08T17:41:24;98620;;;15.4;86.9
27358;BME280;14831;50.474;7.616;2023-05-08T17:46:24;98610;;;15.3;87.6
27358;BME280;14831;50.474;7.616;2023-05-08T17:51:24;98610;;;15.1;88.0
27358;BME280;14831;50.474;7.616;2023-05-08T17:56:24;98610;;;15.0;88.4
27358;BME280;14831;50.474;7.616;2023-05-08T18:01:24;98600;;;14.9;89.0
27358;BME280;14831;50.474;7.616;2023-05-08T18:06:24;98610;;;14.8;89.2
27358;BME280;14831;50.474;7.616;2023-05-08T18:11:24;98610;;;14.7;89.7
27358;BME280;14831;50.474;7.616;2023-05-08T18:16:24;98600;;;14.6;90.0
27358;BME280;14831;50.474;7.616;2023-05-08T18:21:24;98610;;;14.6;90.5
27358;BME280;14831;50.474;7.616;2023-05-08T18:26:24;98620;;;14.6;91.1
27358;BME280;14831;50.474;7.616;2023-05-08T18:31:24;98610;;;14.6;91.0
27358;BME280;14831;50.474;7.616;2023-05-08T18:36:24;98620;;;14.6;91.1
27358;BME280;14831;50.474;7.616;2023-05-08T18:41:24;98620;;;14.6;91.2
27358;BME280;14831;50.474;7.616;2023-05-08T18:46:24;98620;;;14.5;91.2
27358;BME280;14831;50.474;7.616;2023-05-08T18:51:24;98610;;;14.4;91.5
27358;BME280;14831;50.474;7.616;2023-05-08T18:56:24;98620;;;14.3;91.6
27358;BME280;14831;50.474;7.616;2023-05-08T19:01:24;98610;;;14.2;92.2
27358;BME280;14831;50.474;7.616;2023-05-08T19:06:24;98600;;;14.0;92.2
27358;BME280;14831;50.474;7.616;2023-05-08T19:11:24;98600;;;13.9;92.6
27358;BME280;14831;50.474;7.616;2023-05-08T19:16:24;98590;;;13.6;93.0
27358;BME280;14831;50.474;7.616;2023-05-08T19:21:24;98590;;;13.5;93.7
27358;BME280;14831;50.474;7.616;2023-05-08T19:26:24;98590;;;13.4;93.7
27358;BME280;14831;50.474;7.616;2023-05-08T19:31:24;98590;;;13.3;94.4
27358;BME280;14831;50.474;7.616;2023-05-08T19:36:24;98590;;;13.4;94.6
27358;BME280;14831;50.474;7.616;2023-05-08T19:41:24;98590;;;13.3;94.7
27358;BME280;14831;50.474;7.616;2023-05-08T19:46:24;98590;;;13.3;94.9
27358;BME280;14831;50.474;7.616;2023-05-08T19:51:24;98590;;;13.2;95.1
27358;BME280;14831;50.474;7.616;2023-05-08T19:56:24;98590;;;13.1;95.0
27358;BME280;14831;50.474;7.616;2023-05-08T20:01:24;98590;;;13.1;95.0
27358;BME280;14831;50.474;7.616;2023-05-08T20:06:24;98600;;;13.0;94.9
27358;BME280;14831;50.474;7.616;2023-05-08T20:11:24;98590;;;13.0;95.6
27358;BME280;14831;50.474;7.616;2023-05-08T20:16:24;98580;;;13.0;95.7
27358;BME280;14831;50.474;7.616;2023-05-08T20:21:24;98570;;;12.9;95.7
27358;BME280;14831;50.474;7.616;2023-05-08T20:26:24;98580;;;12.8;96.0
27358;BME280;14831;50.474;7.616;2023-05-08T20:31:24;98570;;;12.7;95.7
27358;BME280;14831;50.474;7.616;2023-05-08T20:36:24;98570;;;12.6;95.9
27358;BME280;14831;50.474;7.616;2023-05-08T20:41:24;98580;;;12.8;96.5
27358;BME280;14831;50.474;7.616;2023-05-08T20:46:24;98580;;;12.8;96.5
27358;BME280;14831;50.474;7.616;2023-05-08T20:51:24;98580;;;12.6;96.4
27358;BME280;14831;50.474;7.616;2023-05-08T20:56:24;98570;;;12.5;96.7
27358;BME280;14831;50.474;7.616;2023-05-08T21:01:24;98580;;;12.7;96.7
27358;BME280;14831;50.474;7.616;2023-05-08T21:06:24;98580;;;12.6;96.9
27358;BME280;14831;50.474;7.616;2023-05-08T21:11:24;98580;;;12.6;97.1
27358;BME280;14831;50.474;7.616;2023-05-08T21:16:24;98570;;;12.6;97.1
27358;BME280;14831;50.474;7.616;2023-05-08T21:21:24;98560;;;12.5;97.1
27358;BME280;14831;50.474;7.616;2023-05-08T21:26:24;98560;;;12.5;97.2
27358;BME280;14831;50.474;7.616;2023-05-08T21:31:24;98550;;;12.6;97.3
27358;BME280;14831;50.474;7.616;2023-05-08T21:36:24;98540;;;12.6;97.1
27358;BME280;14831;50.474;7.616;2023-05-08T21:41:24;98540;;;12.6;97.1
27358;BME280;14831;50.474;7.616;2023-05-08T21:46:24;98530;;;12.6;97.1
27358;BME280;14831;50.474;7.616;2023-05-08T21:51:24;98530;;;12.6;97.2
27358;BME280;14831;50.474;7.616;2023-05-08T21:56:24;98520;;;12.6;97.1
27358;BME280;14831;50.474;7.616;2023-05-08T22:01:24;98520;;;12.6;96.7
27358;BME280;14831;50.474;7.616;2023-05-08T22:06:24;98510;;;12.6;96.6
27358;BME280;14831;50.474;7.616;2023-05-08T22:11:24;98510;;;12.6;96.6
27358;BME280;14831;50.474;7.616;2023-05-08T22:16:24;98520;;;12.5;96.6
27358;BME280;14831;50.474;7.616;2023-05-08T22:21:24;98510;;;12.5;96.5
27358;BME280;14831;50.474;7.616;2023-05-08T22:26:24;98510;;;12.4;96.6
27358;BME280;14831;50.474;7.616;2023-05-08T22:31:24;98500;;;12.6;96.8
27358;BME280;14831;50.474;7.616;2023-05-08T22:36:24;98500;;;12.7;96.6
27358;BME280;14831;50.474;7.616;2023-05-08T22:41:24;98490;;;12.7;96.6
27358;BME280;14831;50.474;7.616;2023-05-08T22:46:24;98490;;;12.7;96.4
27358;BME280;14831;50.474;7.616;2023-05-08T22:51:24;98480;;;12.6;96.3
27358;BME280;14831;50.474;7.616;2023-05-08T22:56:24;98470;;;12.6;96.4
27358;BME280;14831;50.474;7.616;2023-05-08T23:01:24;98480;;;12.6;96.4
27358;BME280;14831;50.474;7.616;2023-05-08T23:06:24;98470;;;12.6;96.4
27358;BME280;14831;50.474;7.616;2023-05-08T23:11:24;98470;;;12.5;96.5
27358;BME280;14831;50.474;7.616;2023-05-08T23:16:24;98460;;;12.5;96.5
27358;BME280;14831;50.474;7.616;2023-05-08T23:21:24;98450;;;12.4;96.6
27358;BME280;14831;50.474;7.616;2023-05-08T23:26:24;98450;;;12.3;96.6
27358;BME280;14831;50.474;7.616;2023-05-08T23:31:24;98450;;;12.2;96.6
27358;BME280;14831;50.474;7.616;2023-05-08T23:36:24;98440;;;12.1;96.6
27358;BME280;14831;50.474;7.616;2023-05-08T23:41:24;98440;;;12.0;96.7
27358;BME280;14831;50.474;7.616;2023-05-08T23:46:24;98430;;;11.9;96.7
27358;BME280;14831;50.474;7.616;2023-05-08T23:51:24;98430;;;11.8;96.7
27358;BME280;14831;50.474;7.616;2023-05-08T23:56:24;98430;;;11.8;96.9
